Time;durP1;ratioP1;P1;durP2;ratioP2;P2;SDS_P1;SDS_P2;PMS_P1;PMS_P2;Temp;Humidity;BMP_temperature;BMP_pressure;BME280_temperature;BME280_humidity;BME280_pressure;Samples;Min_cycle;Max_cycle;Signal;HPM_P1;HPM_P2
2022/03/23 00:02:13;;;;;;;;;31.50;28.50;;;;;;;;110412;1262;22593;-47
2022/03/23 00:04:41;;;;;;;;;29.00;28.33;;;;;;;;110413;1262;17547;-48
2022/03/23 00:07:08;;;;;;;;;35.00;29.67;;;;;;;;110424;1261;21997;-47
2022/03/23 00:09:35;;;;;;;;;34.00;29.00;;;;;;;;110479;1260;20726;-47
2022/03/23 00:12:02;;;;;;;;;29.50;26.00;;;;;;;;110429;1262;17294;-48
2022/03/23 00:14:29;;;;;;;;;35.33;32.00;;;;;;;;110471;1261;19671;-49
2022/03/23 00:16:57;;;;;;;;;34.33;29.67;;;;;;;;110436;1261;17947;-48
2022/03/23 00:19:24;;;;;;;;;31.00;28.00;;;;;;;;110355;1261;17559;-49
2022/03/23 00:21:52;;;;;;;;;37.00;34.00;;;;;;;;110351;1262;19375;-50
2022/03/23 00:24:19;;;;;;;;;36.67;32.67;;;;;;;;110277;1262;17844;-47
2022/03/23 00:26:46;;;;;;;;;31.67;27.33;;;;;;;;110298;1262;17375;-48
2022/03/23 00:29:14;;;;;;;;;36.00;33.00;;;;;;;;110377;1262;21460;-49
2022/03/23 00:31:41;;;;;;;;;40.00;33.00;;;;;;;;110400;1261;17651;-48
2022/03/23 00:34:08;;;;;;;;;39.33;32.67;;;;;;;;110424;1261;17464;-50
2022/03/23 00:36:36;;;;;;;;;35.33;30.33;;;;;;;;110421;1262;19248;-50
2022/03/23 00:39:03;;;;;;;;;31.67;29.00;;;;;;;;110450;1262;18652;-50
2022/03/23 00:41:30;;;;;;;;;33.00;32.33;;;;;;;;110484;1262;17426;-50
2022/03/23 00:43:58;;;;;;;;;35.67;31.33;;;;;;;;110389;1262;21790;-49
2022/03/23 00:46:25;;;;;;;;;30.00;29.00;;;;;;;;110323;1262;17615;-50
2022/03/23 00:48:53;;;;;;;;;37.00;33.33;;;;;;;;110422;1261;19116;-50
2022/03/23 00:51:20;;;;;;;;;36.33;33.67;;;;;;;;110435;1261;17505;-51
2022/03/23 00:53:48;;;;;;;;;36.00;30.67;;;;;;;;110480;1262;17807;-49
2022/03/23 00:56:15;;;;;;;;;35.67;33.00;;;;;;;;110455;1262;18067;-51
2022/03/23 00:58:42;;;;;;;;;37.67;32.33;;;;;;;;110529;1262;17584;-48
2022/03/23 01:01:11;;;;;;;;;32.50;32.00;;;;;;;;110415;1261;17642;-48
2022/03/23 01:03:39;;;;;;;;;35.00;33.33;;;;;;;;110419;1261;17539;-50
2022/03/23 01:06:06;;;;;;;;;35.33;32.33;;;;;;;;110318;1262;19499;-50
2022/03/23 01:08:34;;;;;;;;;37.00;33.67;;;;;;;;110425;1262;18161;-49
2022/03/23 01:11:01;;;;;;;;;38.00;33.67;;;;;;;;110448;1261;17490;-49
2022/03/23 01:13:29;;;;;;;;;31.33;29.33;;;;;;;;110424;1261;17514;-50
2022/03/23 01:15:56;;;;;;;;;33.67;31.67;;;;;;;;110455;1262;18589;-51
2022/03/23 01:18:23;;;;;;;;;30.33;29.00;;;;;;;;110449;1262;19357;-48
2022/03/23 01:20:50;;;;;;;;;33.00;30.50;;;;;;;;110482;1262;19559;-49
2022/03/23 01:23:17;;;;;;;;;35.33;33.00;;;;;;;;110436;1262;17859;-49
2022/03/23 01:25:45;;;;;;;;;35.67;32.67;;;;;;;;110470;1262;18263;-47
2022/03/23 01:28:12;;;;;;;;;34.33;32.33;;;;;;;;110429;1262;17631;-49
2022/03/23 01:30:39;;;;;;;;;36.33;33.33;;;;;;;;110365;1262;17783;-50
2022/03/23 01:33:07;;;;;;;;;35.67;33.67;;;;;;;;110155;1261;19421;-51
2022/03/23 01:35:34;;;;;;;;;39.33;33.00;;;;;;;;110487;1262;17500;-50
2022/03/23 01:38:01;;;;;;;;;38.00;32.50;;;;;;;;110325;1262;17690;-47
2022/03/23 01:40:29;;;;;;;;;36.33;29.33;;;;;;;;110385;1262;17480;-47
2022/03/23 01:42:56;;;;;;;;;36.33;33.00;;;;;;;;110373;1262;17635;-47
2022/03/23 01:45:23;;;;;;;;;35.67;31.67;;;;;;;;110401;1261;22170;-52
2022/03/23 01:47:51;;;;;;;;;37.67;34.00;;;;;;;;110360;1262;19077;-48
2022/03/23 01:50:18;;;;;;;;;38.67;32.67;;;;;;;;110420;1262;20112;-48
2022/03/23 01:52:45;;;;;;;;;38.00;32.33;;;;;;;;110277;1261;17927;-47
2022/03/23 01:55:13;;;;;;;;;37.33;32.00;;;;;;;;110402;1261;18104;-49
2022/03/23 01:57:40;;;;;;;;;37.00;32.00;;;;;;;;110427;1262;17686;-49
2022/03/23 02:00:07;;;;;;;;;33.00;31.33;;;;;;;;110472;1262;17672;-48
2022/03/23 02:02:35;;;;;;;;;35.00;32.33;;;;;;;;110440;1262;17517;-50
2022/03/23 02:05:02;;;;;;;;;34.00;33.33;;;;;;;;110439;1262;17563;-48
2022/03/23 02:07:30;;;;;;;;;39.00;34.00;;;;;;;;110446;1260;21479;-49
2022/03/23 02:09:57;;;;;;;;;35.33;33.67;;;;;;;;110436;1262;17566;-49
2022/03/23 02:12:26;;;;;;;;;38.50;33.50;;;;;;;;110371;1262;18040;-49
2022/03/23 02:14:53;;;;;;;;;39.33;35.33;;;;;;;;110494;1262;19777;-49
2022/03/23 02:17:20;;;;;;;;;36.67;33.67;;;;;;;;110453;1261;17483;-49
2022/03/23 02:19:47;;;;;;;;;37.00;34.67;;;;;;;;110397;1261;22135;-50
2022/03/23 02:22:15;;;;;;;;;32.67;28.67;;;;;;;;110375;1262;17764;-48
2022/03/23 02:24:42;;;;;;;;;40.00;35.33;;;;;;;;110442;1262;17436;-50
2022/03/23 02:27:09;;;;;;;;;34.00;32.50;;;;;;;;110454;1262;19342;-48
2022/03/23 02:29:37;;;;;;;;;33.00;32.50;;;;;;;;110444;1261;17625;-51
2022/03/23 02:32:04;;;;;;;;;37.67;33.00;;;;;;;;110454;1262;21480;-49
2022/03/23 02:34:32;;;;;;;;;31.00;28.33;;;;;;;;110417;1262;17518;-49
2022/03/23 02:36:59;;;;;;;;;39.67;33.00;;;;;;;;110418;1261;19400;-48
2022/03/23 02:39:26;;;;;;;;;39.33;36.33;;;;;;;;110451;1262;17313;-49
2022/03/23 02:41:56;;;;;;;;;40.67;33.33;;;;;;;;110466;1262;19404;-48
2022/03/23 02:44:23;;;;;;;;;38.33;31.00;;;;;;;;110433;1262;17807;-49
2022/03/23 02:46:50;;;;;;;;;34.67;32.33;;;;;;;;110408;1262;19397;-49
2022/03/23 02:49:18;;;;;;;;;34.33;31.00;;;;;;;;110431;1261;17462;-47
2022/03/23 02:51:45;;;;;;;;;34.00;30.50;;;;;;;;110428;1261;17825;-47
2022/03/23 03:02:38;;;;;;;;;39.33;36.00;;;;;;;;110110;1268;21492;-51
2022/03/23 03:05:06;;;;;;;;;36.00;31.50;;;;;;;;109896;1268;19274;-49
2022/03/23 03:08:44;;;;;;;;;37.67;32.67;;;;;;;;109951;1267;20438;-49
2022/03/23 03:10:21;;;;;;;;;36.67;33.00;;;;;;;;109991;1267;19270;-49
2022/03/23 03:12:48;;;;;;;;;37.00;36.00;;;;;;;;110042;1268;19818;-50
2022/03/23 03:15:15;;;;;;;;;36.67;32.67;;;;;;;;110027;1267;18134;-49
2022/03/23 03:17:42;;;;;;;;;34.67;30.00;;;;;;;;110058;1268;17842;-52
2022/03/23 03:20:10;;;;;;;;;34.33;32.00;;;;;;;;109997;1268;19749;-49
2022/03/23 03:22:38;;;;;;;;;45.00;32.00;;;;;;;;109970;1268;18209;-51
2022/03/23 03:25:05;;;;;;;;;41.67;34.33;;;;;;;;110015;1268;18600;-48
2022/03/23 03:27:35;;;;;;;;;33.00;31.67;;;;;;;;110035;1267;18684;-48
2022/03/23 03:30:02;;;;;;;;;39.50;34.00;;;;;;;;110015;1268;17860;-53
2022/03/23 03:32:29;;;;;;;;;36.67;32.33;;;;;;;;110271;1262;17551;-49
2022/03/23 03:34:56;;;;;;;;;37.67;34.00;;;;;;;;110361;1261;22123;-46
2022/03/23 03:37:24;;;;;;;;;37.33;29.67;;;;;;;;110435;1261;19531;-49
2022/03/23 03:39:51;;;;;;;;;37.00;32.00;;;;;;;;110392;1262;17511;-49
2022/03/23 03:42:18;;;;;;;;;36.67;33.67;;;;;;;;110398;1261;20396;-49
2022/03/23 03:44:45;;;;;;;;;36.67;33.00;;;;;;;;110499;1262;17706;-48
2022/03/23 03:47:13;;;;;;;;;41.00;37.00;;;;;;;;110384;1261;20033;-49
2022/03/23 03:49:40;;;;;;;;;37.00;32.00;;;;;;;;110416;1262;17394;-48
2022/03/23 03:52:07;;;;;;;;;41.00;35.67;;;;;;;;110417;1262;19099;-52
2022/03/23 03:54:34;;;;;;;;;39.67;34.00;;;;;;;;110324;1262;17457;-51
2022/03/23 03:57:01;;;;;;;;;35.33;33.00;;;;;;;;110453;1261;19521;-49
2022/03/23 03:59:29;;;;;;;;;36.00;34.00;;;;;;;;110434;1261;21415;-50
2022/03/23 04:01:56;;;;;;;;;32.33;30.67;;;;;;;;110370;1262;17576;-53
2022/03/23 04:04:24;;;;;;;;;38.67;36.00;;;;;;;;110393;1262;19534;-52
2022/03/23 04:06:51;;;;;;;;;39.00;34.50;;;;;;;;110424;1262;17792;-54
2022/03/23 04:09:18;;;;;;;;;36.33;34.67;;;;;;;;110437;1262;21969;-50
2022/03/23 04:11:45;;;;;;;;;37.00;34.67;;;;;;;;110488;1262;17505;-47
2022/03/23 04:14:12;;;;;;;;;38.67;34.00;;;;;;;;110438;1262;17771;-48
2022/03/23 04:16:40;;;;;;;;;38.67;34.00;;;;;;;;110419;1261;19194;-49
2022/03/23 04:19:07;;;;;;;;;37.00;34.00;;;;;;;;110438;1262;17398;-50
2022/03/23 04:21:34;;;;;;;;;42.00;35.00;;;;;;;;110452;1261;20565;-48
2022/03/23 04:24:01;;;;;;;;;41.67;35.67;;;;;;;;110454;1262;17566;-48
2022/03/23 04:26:29;;;;;;;;;42.00;33.00;;;;;;;;110449;1262;17678;-49
2022/03/23 04:28:56;;;;;;;;;34.67;33.00;;;;;;;;110468;1262;17690;-49
2022/03/23 04:31:23;;;;;;;;;39.67;35.33;;;;;;;;110436;1262;19099;-49
2022/03/23 04:33:50;;;;;;;;;36.00;32.67;;;;;;;;110431;1262;17671;-49
2022/03/23 04:36:18;;;;;;;;;38.00;33.00;;;;;;;;110430;1262;20394;-49
2022/03/23 04:38:45;;;;;;;;;36.67;34.00;;;;;;;;110506;1261;17487;-49
2022/03/23 04:41:12;;;;;;;;;37.00;34.00;;;;;;;;110447;1261;20432;-48
2022/03/23 04:43:41;;;;;;;;;42.33;33.00;;;;;;;;110430;1262;17782;-49
2022/03/23 04:46:08;;;;;;;;;41.33;36.33;;;;;;;;110422;1262;17385;-50
2022/03/23 04:48:35;;;;;;;;;36.00;32.33;;;;;;;;110427;1262;20546;-49
2022/03/23 04:51:03;;;;;;;;;41.33;36.33;;;;;;;;110437;1261;19429;-48
2022/03/23 04:53:30;;;;;;;;;43.67;38.67;;;;;;;;110448;1262;17796;-49
2022/03/23 04:55:57;;;;;;;;;32.33;30.67;;;;;;;;110446;1262;17420;-50
2022/03/23 04:58:25;;;;;;;;;40.33;36.33;;;;;;;;110438;1261;20649;-49
2022/03/23 05:00:52;;;;;;;;;43.50;39.00;;;;;;;;110352;1262;19791;-49
2022/03/23 05:03:19;;;;;;;;;35.67;33.33;;;;;;;;110445;1262;17969;-50
2022/03/23 05:05:47;;;;;;;;;36.00;32.00;;;;;;;;110384;1262;20521;-50
2022/03/23 05:08:15;;;;;;;;;35.67;35.33;;;;;;;;110447;1262;17353;-52
2022/03/23 05:10:42;;;;;;;;;41.00;33.67;;;;;;;;110437;1261;19784;-50
2022/03/23 05:13:09;;;;;;;;;35.00;32.33;;;;;;;;110336;1262;22482;-49
2022/03/23 05:15:37;;;;;;;;;43.00;36.00;;;;;;;;110433;1262;17544;-50
2022/03/23 05:18:04;;;;;;;;;37.67;33.67;;;;;;;;110486;1261;19324;-50
2022/03/23 05:20:32;;;;;;;;;40.00;36.67;;;;;;;;110469;1262;17985;-50
2022/03/23 05:22:59;;;;;;;;;44.33;35.67;;;;;;;;110452;1261;19830;-51
2022/03/23 05:25:26;;;;;;;;;42.33;37.33;;;;;;;;110402;1262;19301;-51
2022/03/23 05:27:53;;;;;;;;;35.00;32.00;;;;;;;;110430;1261;19939;-52
2022/03/23 05:30:21;;;;;;;;;36.00;33.33;;;;;;;;110399;1262;20187;-53
2022/03/23 05:32:48;;;;;;;;;38.33;36.67;;;;;;;;110327;1262;21344;-51
2022/03/23 05:35:15;;;;;;;;;43.67;37.00;;;;;;;;110396;1262;19548;-50
2022/03/23 05:37:42;;;;;;;;;44.00;36.67;;;;;;;;110384;1262;17525;-50
2022/03/23 05:40:11;;;;;;;;;44.00;36.33;;;;;;;;110461;1261;17638;-50
2022/03/23 05:42:39;;;;;;;;;40.67;36.67;;;;;;;;110421;1261;18205;-50
2022/03/23 05:45:06;;;;;;;;;38.00;35.00;;;;;;;;110434;1262;17511;-50
2022/03/23 05:47:34;;;;;;;;;41.67;39.67;;;;;;;;110359;1262;22656;-50
2022/03/23 05:50:01;;;;;;;;;37.33;33.67;;;;;;;;110343;1262;21296;-50
2022/03/23 05:52:29;;;;;;;;;48.00;39.67;;;;;;;;110408;1262;19078;-53
2022/03/23 05:54:56;;;;;;;;;45.00;40.00;;;;;;;;110326;1262;19815;-52
2022/03/23 05:57:23;;;;;;;;;42.00;36.33;;;;;;;;110392;1262;17842;-50
2022/03/23 05:59:50;;;;;;;;;41.67;34.33;;;;;;;;110369;1262;19281;-51
2022/03/23 06:02:18;;;;;;;;;44.33;37.67;;;;;;;;110257;1261;17484;-51
2022/03/23 06:04:46;;;;;;;;;40.00;35.67;;;;;;;;110270;1262;17914;-51
2022/03/23 06:07:13;;;;;;;;;44.33;39.00;;;;;;;;110428;1261;17410;-51
2022/03/23 06:09:40;;;;;;;;;40.67;36.67;;;;;;;;110398;1261;17362;-51
2022/03/23 06:12:11;;;;;;;;;34.67;33.67;;;;;;;;110451;1262;20071;-50
2022/03/23 06:14:38;;;;;;;;;37.67;35.00;;;;;;;;110451;1261;17778;-51
2022/03/23 06:17:06;;;;;;;;;38.00;34.50;;;;;;;;110340;1262;17810;-49
2022/03/23 06:19:33;;;;;;;;;43.00;35.00;;;;;;;;110341;1261;17653;-56
2022/03/23 06:22:00;;;;;;;;;40.67;34.00;;;;;;;;110363;1262;17437;-51
2022/03/23 06:24:27;;;;;;;;;35.33;32.33;;;;;;;;110378;1262;19525;-50
2022/03/23 06:26:54;;;;;;;;;37.50;35.00;;;;;;;;110326;1261;17709;-49
2022/03/23 06:29:22;;;;;;;;;33.67;33.00;;;;;;;;110393;1262;22773;-51
2022/03/23 06:31:49;;;;;;;;;36.67;31.67;;;;;;;;110329;1261;17641;-51
2022/03/23 06:34:16;;;;;;;;;37.00;33.50;;;;;;;;110411;1262;19233;-50
2022/03/23 06:36:43;;;;;;;;;32.67;30.33;;;;;;;;110232;1262;17414;-50
2022/03/23 06:39:10;;;;;;;;;39.67;34.00;;;;;;;;110139;1262;17561;-50
2022/03/23 06:41:38;;;;;;;;;37.00;33.00;;;;;;;;110216;1262;19227;-49
2022/03/23 06:44:05;;;;;;;;;36.67;30.33;;;;;;;;110190;1262;17409;-49
2022/03/23 06:46:32;;;;;;;;;44.33;32.00;;;;;;;;110132;1262;19186;-49
2022/03/23 06:49:00;;;;;;;;;35.67;31.00;;;;;;;;110205;1262;17781;-48
2022/03/23 06:51:28;;;;;;;;;35.50;32.50;;;;;;;;110128;1261;20842;-50
2022/03/23 06:53:55;;;;;;;;;35.00;33.00;;;;;;;;110207;1262;17622;-53
2022/03/23 06:56:22;;;;;;;;;35.67;32.00;;;;;;;;110104;1262;22285;-50
2022/03/23 06:58:49;;;;;;;;;33.00;31.00;;;;;;;;110282;1261;17630;-50
2022/03/23 07:01:17;;;;;;;;;36.67;29.67;;;;;;;;110349;1262;17748;-52
2022/03/23 07:03:44;;;;;;;;;30.67;28.33;;;;;;;;110419;1262;17652;-49
2022/03/23 07:06:11;;;;;;;;;35.67;30.00;;;;;;;;110421;1262;19650;-51
2022/03/23 07:11:23;;;;;;;;;30.50;28.50;;;;;;;;110412;1262;19909;-51
2022/03/23 07:13:50;;;;;;;;;33.50;27.50;;;;;;;;110311;1262;17573;-49
2022/03/23 07:16:18;;;;;;;;;29.00;28.00;;;;;;;;110325;1262;23495;-54
2022/03/23 07:18:45;;;;;;;;;32.00;30.00;;;;;;;;110366;1262;17838;-50
2022/03/23 07:21:12;;;;;;;;;36.67;32.67;;;;;;;;110356;1262;20957;-50
2022/03/23 07:23:39;;;;;;;;;30.00;28.67;;;;;;;;110441;1262;17437;-50
2022/03/23 07:26:06;;;;;;;;;33.00;28.00;;;;;;;;110323;1262;17737;-49
2022/03/23 07:28:34;;;;;;;;;28.33;27.33;;;;;;;;110375;1262;17391;-49
2022/03/23 07:31:01;;;;;;;;;28.33;25.67;;;;;;;;110295;1261;17867;-52
2022/03/23 07:33:29;;;;;;;;;31.00;29.00;;;;;;;;110461;1262;21142;-50
2022/03/23 07:35:56;;;;;;;;;29.67;27.67;;;;;;;;110404;1261;17662;-51
2022/03/23 07:38:24;;;;;;;;;30.00;26.00;;;;;;;;110349;1262;22515;-51
2022/03/23 07:40:51;;;;;;;;;31.00;30.00;;;;;;;;110361;1261;18598;-49
2022/03/23 07:43:19;;;;;;;;;31.33;28.67;;;;;;;;110394;1262;20407;-49
2022/03/23 07:45:46;;;;;;;;;35.00;29.00;;;;;;;;110393;1262;17617;-49
2022/03/23 07:48:13;;;;;;;;;34.67;31.67;;;;;;;;110398;1261;21186;-51
2022/03/23 07:50:40;;;;;;;;;35.33;31.33;;;;;;;;110372;1262;21933;-52
2022/03/23 07:53:07;;;;;;;;;29.00;27.33;;;;;;;;110313;1261;17447;-50
2022/03/23 07:55:35;;;;;;;;;36.33;31.00;;;;;;;;110168;1262;17828;-54
2022/03/23 07:58:02;;;;;;;;;33.50;30.00;;;;;;;;110279;1261;20833;-50
2022/03/23 08:00:29;;;;;;;;;39.00;32.00;;;;;;;;110221;1262;19392;-50
2022/03/23 08:02:56;;;;;;;;;37.67;35.00;;;;;;;;110400;1262;17788;-53
2022/03/23 08:05:25;;;;;;;;;40.33;36.00;;;;;;;;110394;1262;17562;-49
2022/03/23 08:07:52;;;;;;;;;44.50;36.00;;;;;;;;110364;1262;17702;-49
2022/03/23 08:10:19;;;;;;;;;40.67;37.00;;;;;;;;110331;1262;17675;-50
2022/03/23 08:12:47;;;;;;;;;37.33;36.00;;;;;;;;110336;1262;17631;-51
2022/03/23 08:15:14;;;;;;;;;43.00;36.33;;;;;;;;110409;1262;17510;-50
2022/03/23 08:17:42;;;;;;;;;41.67;34.67;;;;;;;;110422;1262;21773;-52
2022/03/23 08:22:54;;;;;;;;;37.00;34.67;;;;;;;;110347;1261;17659;-49
2022/03/23 08:25:21;;;;;;;;;35.33;32.67;;;;;;;;110437;1262;19000;-53
2022/03/23 08:27:48;;;;;;;;;38.50;33.50;;;;;;;;110421;1262;19726;-51
2022/03/23 08:30:16;;;;;;;;;34.67;31.67;;;;;;;;110272;1262;17384;-50
2022/03/23 08:32:43;;;;;;;;;33.67;29.67;;;;;;;;110386;1262;17986;-54
2022/03/23 08:35:10;;;;;;;;;35.67;31.67;;;;;;;;110431;1262;18963;-49
2022/03/23 08:37:37;;;;;;;;;32.50;28.00;;;;;;;;110334;1261;17485;-50
2022/03/23 08:40:05;;;;;;;;;38.67;34.00;;;;;;;;110359;1261;20422;-50
2022/03/23 08:42:32;;;;;;;;;35.67;32.00;;;;;;;;110201;1262;19458;-51
2022/03/23 08:44:59;;;;;;;;;149.75;113.75;;;;;;;;110271;1262;17485;-51
2022/03/23 08:47:27;;;;;;;;;174.00;132.25;;;;;;;;110081;1262;219254;-49
2022/03/23 08:49:55;;;;;;;;;205.25;145.50;;;;;;;;110294;1261;17495;-50
2022/03/23 08:52:23;;;;;;;;;188.00;141.25;;;;;;;;110234;1262;17813;-49
2022/03/23 08:54:50;;;;;;;;;233.75;176.75;;;;;;;;110254;1261;17689;-51
2022/03/23 08:57:17;;;;;;;;;295.00;213.00;;;;;;;;110194;1262;22833;-51
2022/03/23 08:59:44;;;;;;;;;212.25;156.50;;;;;;;;110352;1262;17749;-50
2022/03/23 09:02:12;;;;;;;;;169.50;123.50;;;;;;;;110349;1262;19799;-51
2022/03/23 09:04:39;;;;;;;;;161.00;130.00;;;;;;;;110282;1262;18128;-48
2022/03/23 09:07:06;;;;;;;;;152.00;112.25;;;;;;;;110302;1261;19108;-51
2022/03/23 09:09:33;;;;;;;;;124.00;100.25;;;;;;;;110266;1262;17621;-50
2022/03/23 09:12:01;;;;;;;;;125.00;98.00;;;;;;;;110303;1262;17665;-50
2022/03/23 09:14:28;;;;;;;;;125.00;95.50;;;;;;;;110387;1262;17614;-52
2022/03/23 09:16:55;;;;;;;;;116.50;92.00;;;;;;;;110272;1262;19032;-49
2022/03/23 09:19:23;;;;;;;;;111.67;84.00;;;;;;;;110241;1262;21843;-49
2022/03/23 09:21:50;;;;;;;;;113.67;84.00;;;;;;;;110268;1262;17637;-49
2022/03/23 09:24:19;;;;;;;;;99.33;80.67;;;;;;;;110426;1261;17647;-50
2022/03/23 09:26:46;;;;;;;;;103.00;78.00;;;;;;;;110404;1262;17486;-53
2022/03/23 09:29:13;;;;;;;;;101.33;79.00;;;;;;;;110301;1261;20319;-47
2022/03/23 09:31:41;;;;;;;;;95.33;72.33;;;;;;;;110311;1262;18361;-48
2022/03/23 09:34:08;;;;;;;;;94.67;72.33;;;;;;;;110372;1261;23097;-47
2022/03/23 09:39:21;;;;;;;;;93.33;67.00;;;;;;;;110321;1262;19647;-50
2022/03/23 09:41:48;;;;;;;;;89.67;64.00;;;;;;;;110413;1261;17526;-50
2022/03/23 09:44:15;;;;;;;;;80.33;58.00;;;;;;;;110337;1262;21792;-49
2022/03/23 09:46:43;;;;;;;;;75.50;59.00;;;;;;;;110274;1262;17867;-50
2022/03/23 09:49:11;;;;;;;;;110.50;99.50;;;;;;;;110382;1261;18160;-50
2022/03/23 09:51:38;;;;;;;;;256.25;206.00;;;;;;;;110374;1262;18391;-52
2022/03/23 09:54:05;;;;;;;;;2491.33;2452.33;;;;;;;;110326;1262;17644;-48
2022/03/23 09:56:32;;;;;;;;;4301.50;4301.50;;;;;;;;110405;1262;18099;-51
2022/03/23 09:59:00;;;;;;;;;296.67;234.00;;;;;;;;110409;1262;18249;-50
2022/03/23 10:01:27;;;;;;;;;297.75;239.00;;;;;;;;110372;1262;18227;-52
2022/03/23 10:03:55;;;;;;;;;217.25;179.50;;;;;;;;110396;1262;17496;-48
2022/03/23 10:06:22;;;;;;;;;146.75;122.25;;;;;;;;110167;1262;19584;-49
2022/03/23 10:08:49;;;;;;;;;111.25;93.75;;;;;;;;110286;1261;21910;-47
2022/03/23 10:11:17;;;;;;;;;106.00;90.25;;;;;;;;110223;1262;17727;-48
2022/03/23 10:13:45;;;;;;;;;104.33;93.67;;;;;;;;110219;1261;17974;-48
2022/03/23 10:16:12;;;;;;;;;93.00;72.00;;;;;;;;110214;1262;17609;-50
2022/03/23 10:18:39;;;;;;;;;90.67;68.00;;;;;;;;110123;1262;17413;-48
2022/03/23 10:21:07;;;;;;;;;90.00;67.00;;;;;;;;110352;1262;17390;-49
2022/03/23 10:23:34;;;;;;;;;77.00;60.50;;;;;;;;110366;1261;17652;-50
2022/03/23 10:26:01;;;;;;;;;72.00;58.00;;;;;;;;110341;1261;19405;-52
2022/03/23 10:28:29;;;;;;;;;74.50;57.00;;;;;;;;110377;1262;21388;-49
2022/03/23 10:30:56;;;;;;;;;65.33;52.33;;;;;;;;110352;1262;20963;-49
2022/03/23 10:33:23;;;;;;;;;67.33;54.00;;;;;;;;110161;1262;19514;-49
2022/03/23 10:35:50;;;;;;;;;67.00;52.33;;;;;;;;110360;1262;20502;-50
2022/03/23 10:38:18;;;;;;;;;60.67;48.67;;;;;;;;110358;1262;17968;-50
2022/03/23 10:40:45;;;;;;;;;62.67;49.00;;;;;;;;110335;1262;18398;-49
2022/03/23 10:43:12;;;;;;;;;57.33;47.00;;;;;;;;110387;1261;17559;-48
2022/03/23 10:45:39;;;;;;;;;56.00;44.33;;;;;;;;110405;1262;17853;-47
2022/03/23 10:48:07;;;;;;;;;58.67;45.00;;;;;;;;110412;1262;20641;-50
2022/03/23 10:50:34;;;;;;;;;59.67;46.00;;;;;;;;110273;1265;17528;-49
2022/03/23 10:53:02;;;;;;;;;53.00;43.00;;;;;;;;110418;1261;22111;-52
2022/03/23 10:55:29;;;;;;;;;56.67;46.00;;;;;;;;110199;1262;17715;-51
2022/03/23 10:57:56;;;;;;;;;52.33;42.67;;;;;;;;110375;1261;17430;-54
2022/03/23 11:00:24;;;;;;;;;50.33;43.00;;;;;;;;110413;1261;23301;-52
2022/03/23 11:02:51;;;;;;;;;51.33;43.00;;;;;;;;110374;1262;21380;-51
2022/03/23 11:05:19;;;;;;;;;51.33;41.00;;;;;;;;110386;1262;17619;-51
2022/03/23 11:07:46;;;;;;;;;43.00;39.00;;;;;;;;110252;1262;17876;-49
2022/03/23 11:15:51;;;;;;;;;50.00;42.33;;;;;;;;110384;1261;22090;-50
2022/03/23 11:18:18;;;;;;;;;46.00;41.00;;;;;;;;110414;1262;18257;-51
2022/03/23 11:20:45;;;;;;;;;51.00;43.00;;;;;;;;110397;1261;17973;-49
2022/03/23 11:23:13;;;;;;;;;43.33;40.00;;;;;;;;110360;1262;21475;-51
2022/03/23 11:25:40;;;;;;;;;47.00;43.00;;;;;;;;110380;1262;17643;-49
2022/03/23 11:28:07;;;;;;;;;47.33;40.00;;;;;;;;110389;1262;19905;-50
2022/03/23 11:30:35;;;;;;;;;47.67;42.00;;;;;;;;110382;1261;19825;-51
2022/03/23 11:33:02;;;;;;;;;53.00;42.00;;;;;;;;110458;1262;19893;-55
2022/03/23 11:35:29;;;;;;;;;46.67;41.33;;;;;;;;110376;1261;17597;-50
2022/03/23 11:37:56;;;;;;;;;43.67;38.00;;;;;;;;110381;1261;18198;-48
2022/03/23 11:40:24;;;;;;;;;42.67;39.00;;;;;;;;110323;1262;19764;-49
2022/03/23 11:42:52;;;;;;;;;41.67;38.67;;;;;;;;110289;1262;17929;-51
2022/03/23 11:45:19;;;;;;;;;43.33;36.67;;;;;;;;110456;1262;17802;-50
2022/03/23 11:47:46;;;;;;;;;41.00;35.67;;;;;;;;110422;1262;17474;-50
2022/03/23 11:50:13;;;;;;;;;45.00;40.00;;;;;;;;110402;1261;21790;-50
2022/03/23 11:52:41;;;;;;;;;42.00;38.50;;;;;;;;110429;1261;17940;-50
2022/03/23 11:57:54;;;;;;;;;42.33;39.00;;;;;;;;110235;1262;19485;-50
2022/03/23 12:00:21;;;;;;;;;41.67;38.33;;;;;;;;110260;1262;20207;-52
2022/03/23 12:02:50;;;;;;;;;39.33;35.67;;;;;;;;110458;1262;19641;-51
2022/03/23 12:05:18;;;;;;;;;41.50;36.00;;;;;;;;110359;1262;19294;-53
2022/03/23 12:07:45;;;;;;;;;39.00;35.67;;;;;;;;110238;1262;17564;-53
2022/03/23 12:10:12;;;;;;;;;39.00;35.00;;;;;;;;110384;1262;19356;-49
2022/03/23 12:12:41;;;;;;;;;39.00;33.67;;;;;;;;110232;1262;17438;-48
2022/03/23 12:15:08;;;;;;;;;35.00;32.00;;;;;;;;110401;1262;17916;-48
2022/03/23 12:17:36;;;;;;;;;37.00;33.00;;;;;;;;110378;1262;19230;-48
2022/03/23 12:20:05;;;;;;;;;35.33;30.67;;;;;;;;110405;1262;17714;-49
2022/03/23 12:22:32;;;;;;;;;35.00;31.67;;;;;;;;110426;1262;17725;-48
2022/03/23 12:24:59;;;;;;;;;35.33;34.00;;;;;;;;110390;1262;21920;-49
2022/03/23 12:27:27;;;;;;;;;33.00;29.67;;;;;;;;110194;1262;17625;-48
2022/03/23 12:29:54;;;;;;;;;34.33;30.33;;;;;;;;110358;1261;17844;-49
2022/03/23 12:32:21;;;;;;;;;36.00;33.67;;;;;;;;110370;1262;19277;-49
2022/03/23 12:34:50;;;;;;;;;36.50;32.50;;;;;;;;110434;1262;21497;-53
2022/03/23 12:37:19;;;;;;;;;34.00;30.33;;;;;;;;110370;1262;21104;-53
2022/03/23 12:39:46;;;;;;;;;37.00;33.67;;;;;;;;110157;1262;18983;-50
2022/03/23 12:42:15;;;;;;;;;36.67;31.33;;;;;;;;110298;1262;17665;-50
2022/03/23 12:44:42;;;;;;;;;54.33;41.67;;;;;;;;110267;1262;17663;-49
2022/03/23 12:47:09;;;;;;;;;63.33;49.33;;;;;;;;110218;1261;20696;-54
2022/03/23 12:57:53;;;;;;;;;306.25;224.00;;;;;;;;110195;1262;19877;-49
2022/03/23 13:00:26;;;;;;;;;247.50;186.50;;;;;;;;110270;1262;17864;-49
2022/03/23 13:02:53;;;;;;;;;237.00;172.50;;;;;;;;110392;1262;21008;-52
2022/03/23 13:05:21;;;;;;;;;153.00;119.33;;;;;;;;110245;1262;17732;-48
2022/03/23 13:07:48;;;;;;;;;138.67;103.67;;;;;;;;110262;1262;21151;-49
2022/03/23 13:10:18;;;;;;;;;126.00;100.25;;;;;;;;110300;1261;17959;-50
2022/03/23 13:12:45;;;;;;;;;93.00;69.67;;;;;;;;110349;1261;17826;-49
2022/03/23 13:15:12;;;;;;;;;88.33;65.00;;;;;;;;110352;1262;17644;-49
2022/03/23 13:17:40;;;;;;;;;98.33;71.33;;;;;;;;110283;1261;17495;-49
2022/03/23 13:20:08;;;;;;;;;87.67;64.00;;;;;;;;110185;1262;17833;-50
2022/03/23 13:22:36;;;;;;;;;75.00;58.00;;;;;;;;110189;1264;17647;-49
2022/03/23 13:25:03;;;;;;;;;72.00;57.00;;;;;;;;110358;1262;17432;-52
2022/03/23 13:27:30;;;;;;;;;75.50;58.00;;;;;;;;110402;1262;18872;-49
2022/03/23 13:29:58;;;;;;;;;75.00;57.50;;;;;;;;110417;1262;18056;-51
2022/03/23 13:32:27;;;;;;;;;70.67;56.00;;;;;;;;110264;1262;19205;-48
2022/03/23 13:34:55;;;;;;;;;68.33;54.00;;;;;;;;110219;1262;19402;-49
2022/03/23 13:37:23;;;;;;;;;64.33;53.00;;;;;;;;110241;1262;17930;-51
2022/03/23 13:39:50;;;;;;;;;67.50;52.50;;;;;;;;110233;1261;19822;-50
2022/03/23 13:45:03;;;;;;;;;67.00;52.00;;;;;;;;110396;1261;22151;-49
2022/03/23 13:47:30;;;;;;;;;68.50;50.00;;;;;;;;110364;1262;18231;-54
2022/03/23 13:49:57;;;;;;;;;64.00;48.50;;;;;;;;110366;1262;18427;-49
2022/03/23 13:52:25;;;;;;;;;64.00;50.00;;;;;;;;110299;1262;18621;-48
2022/03/23 13:54:52;;;;;;;;;62.33;49.33;;;;;;;;110300;1262;18511;-49
2022/03/23 13:57:20;;;;;;;;;62.00;49.33;;;;;;;;110412;1261;18260;-49
2022/03/23 13:59:47;;;;;;;;;61.67;46.67;;;;;;;;110304;1261;18505;-51
2022/03/23 14:02:17;;;;;;;;;56.33;47.67;;;;;;;;110379;1261;18893;-49
2022/03/23 14:04:44;;;;;;;;;60.67;47.00;;;;;;;;110367;1261;18177;-50
2022/03/23 14:07:13;;;;;;;;;61.67;47.00;;;;;;;;110390;1262;19262;-48
2022/03/23 14:09:40;;;;;;;;;60.67;46.67;;;;;;;;110394;1262;19693;-50
2022/03/23 14:12:07;;;;;;;;;59.33;46.33;;;;;;;;110373;1261;18134;-50
2022/03/23 14:14:35;;;;;;;;;58.33;46.00;;;;;;;;110315;1261;21807;-49
2022/03/23 14:17:02;;;;;;;;;54.67;44.67;;;;;;;;110335;1262;18372;-51
2022/03/23 14:19:30;;;;;;;;;53.67;44.67;;;;;;;;110364;1261;18431;-51
2022/03/23 14:21:58;;;;;;;;;47.50;42.50;;;;;;;;110208;1264;20547;-50
2022/03/23 14:24:27;;;;;;;;;55.00;45.33;;;;;;;;110127;1262;18832;-50
2022/03/23 14:26:54;;;;;;;;;52.00;42.67;;;;;;;;110414;1261;18946;-50
2022/03/23 14:29:21;;;;;;;;;50.00;41.67;;;;;;;;110371;1262;18442;-50
2022/03/23 14:31:49;;;;;;;;;43.00;41.00;;;;;;;;110337;1262;18179;-52
2022/03/23 14:34:16;;;;;;;;;50.00;41.67;;;;;;;;110321;1261;18384;-53
2022/03/23 14:36:43;;;;;;;;;44.33;37.33;;;;;;;;110176;1261;21563;-53
2022/03/23 14:39:10;;;;;;;;;44.67;39.00;;;;;;;;110241;1262;22315;-49